sensor_id;sensor_type;location;lat;lon;timestamp;P1;durP1;ratioP1;P2;durP2;ratioP2
55455;SDS011;63021;52.836;6.376;2023-06-22T00:00:50;20.33;;;14.73;;
55455;SDS011;63021;52.836;6.376;2023-06-22T00:03:19;20.33;;;13.48;;
55455;SDS011;63021;52.836;6.376;2023-06-22T00:05:46;16.80;;;14.32;;
55455;SDS011;63021;52.836;6.376;2023-06-22T00:08:13;19.70;;;13.52;;
55455;SDS011;63021;52.836;6.376;2023-06-22T00:10:39;17.35;;;14.25;;
55455;SDS011;63021;52.836;6.376;2023-06-22T00:13:05;19.23;;;14.70;;
55455;SDS011;63021;52.836;6.376;2023-06-22T00:15:32;22.52;;;14.95;;
55455;SDS011;63021;52.836;6.376;2023-06-22T00:17:57;19.90;;;14.90;;
55455;SDS011;63021;52.836;6.376;2023-06-22T00:20:23;17.38;;;14.13;;
55455;SDS011;63021;52.836;6.376;2023-06-22T00:22:53;18.50;;;15.20;;
55455;SDS011;63021;52.836;6.376;2023-06-22T00:25:19;20.02;;;15.60;;
55455;SDS011;63021;52.836;6.376;2023-06-22T00:27:44;19.00;;;15.40;;
55455;SDS011;63021;52.836;6.376;2023-06-22T00:30:10;18.52;;;14.10;;
55455;SDS011;63021;52.836;6.376;2023-06-22T00:32:36;15.55;;;13.13;;
55455;SDS011;63021;52.836;6.376;2023-06-22T00:35:01;17.67;;;13.50;;
55455;SDS011;63021;52.836;6.376;2023-06-22T00:37:27;21.88;;;14.77;;
55455;SDS011;63021;52.836;6.376;2023-06-22T00:39:55;19.95;;;14.68;;
55455;SDS011;63021;52.836;6.376;2023-06-22T00:42:20;17.83;;;14.27;;
55455;SDS011;63021;52.836;6.376;2023-06-22T00:44:46;24.45;;;16.40;;
55455;SDS011;63021;52.836;6.376;2023-06-22T00:47:13;17.90;;;15.60;;
55455;SDS011;63021;52.836;6.376;2023-06-22T00:49:40;17.45;;;14.80;;
55455;SDS011;63021;52.836;6.376;2023-06-22T00:52:07;23.02;;;16.63;;
55455;SDS011;63021;52.836;6.376;2023-06-22T00:54:39;20.67;;;15.57;;
55455;SDS011;63021;52.836;6.376;2023-06-22T00:57:10;18.77;;;14.05;;
55455;SDS011;63021;52.836;6.376;2023-06-22T00:59:37;15.30;;;12.00;;
55455;SDS011;63021;52.836;6.376;2023-06-22T01:02:04;15.57;;;11.48;;
55455;SDS011;63021;52.836;6.376;2023-06-22T01:04:34;12.95;;;10.48;;
55455;SDS011;63021;52.836;6.376;2023-06-22T01:09:47;9.27;;;8.38;;
55455;SDS011;63021;52.836;6.376;2023-06-22T01:12:20;10.25;;;9.05;;
55455;SDS011;63021;52.836;6.376;2023-06-22T01:14:50;12.57;;;10.10;;
55455;SDS011;63021;52.836;6.376;2023-06-22T01:17:22;14.25;;;12.68;;
55455;SDS011;63021;52.836;6.376;2023-06-22T01:19:50;14.30;;;12.88;;
55455;SDS011;63021;52.836;6.376;2023-06-22T01:22:22;16.50;;;14.75;;
55455;SDS011;63021;52.836;6.376;2023-06-22T01:30:17;20.30;;;16.52;;
55455;SDS011;63021;52.836;6.376;2023-06-22T01:32:44;20.30;;;17.90;;
55455;SDS011;63021;52.836;6.376;2023-06-22T01:35:10;18.40;;;15.15;;
55455;SDS011;63021;52.836;6.376;2023-06-22T01:37:37;17.58;;;14.57;;
55455;SDS011;63021;52.836;6.376;2023-06-22T01:40:03;17.52;;;15.68;;
55455;SDS011;63021;52.836;6.376;2023-06-22T01:42:33;18.02;;;16.05;;
55455;SDS011;63021;52.836;6.376;2023-06-22T01:45:00;22.00;;;17.00;;
55455;SDS011;63021;52.836;6.376;2023-06-22T01:47:26;19.00;;;16.98;;
55455;SDS011;63021;52.836;6.376;2023-06-22T01:49:53;22.63;;;18.27;;
55455;SDS011;63021;52.836;6.376;2023-06-22T01:52:18;26.25;;;20.05;;
55455;SDS011;63021;52.836;6.376;2023-06-22T01:54:46;24.30;;;20.65;;
55455;SDS011;63021;52.836;6.376;2023-06-22T01:57:11;22.95;;;19.58;;
55455;SDS011;63021;52.836;6.376;2023-06-22T01:59:39;22.55;;;19.80;;
55455;SDS011;63021;52.836;6.376;2023-06-22T02:02:08;23.65;;;21.10;;
55455;SDS011;63021;52.836;6.376;2023-06-22T02:04:42;23.15;;;20.70;;
55455;SDS011;63021;52.836;6.376;2023-06-22T02:07:12;25.33;;;21.15;;
55455;SDS011;63021;52.836;6.376;2023-06-22T02:09:42;23.35;;;20.13;;
55455;SDS011;63021;52.836;6.376;2023-06-22T02:12:10;25.25;;;20.80;;
55455;SDS011;63021;52.836;6.376;2023-06-22T02:14:38;19.90;;;17.80;;
55455;SDS011;63021;52.836;6.376;2023-06-22T02:17:04;15.63;;;13.98;;
55455;SDS011;63021;52.836;6.376;2023-06-22T02:19:32;16.15;;;14.48;;
55455;SDS011;63021;52.836;6.376;2023-06-22T02:22:01;20.35;;;16.45;;
55455;SDS011;63021;52.836;6.376;2023-06-22T02:24:27;23.80;;;18.10;;
55455;SDS011;63021;52.836;6.376;2023-06-22T02:26:55;17.83;;;15.93;;
55455;SDS011;63021;52.836;6.376;2023-06-22T02:29:22;19.33;;;16.67;;
55455;SDS011;63021;52.836;6.376;2023-06-22T02:31:48;20.50;;;16.85;;
55455;SDS011;63021;52.836;6.376;2023-06-22T02:34:13;21.08;;;18.30;;
55455;SDS011;63021;52.836;6.376;2023-06-22T02:36:46;20.20;;;18.10;;
55455;SDS011;63021;52.836;6.376;2023-06-22T02:39:22;21.20;;;18.27;;
55455;SDS011;63021;52.836;6.376;2023-06-22T02:41:52;20.48;;;16.95;;
55455;SDS011;63021;52.836;6.376;2023-06-22T02:44:19;18.45;;;16.45;;
55455;SDS011;63021;52.836;6.376;2023-06-22T02:46:45;19.77;;;16.77;;
55455;SDS011;63021;52.836;6.376;2023-06-22T02:49:12;20.55;;;16.67;;
55455;SDS011;63021;52.836;6.376;2023-06-22T02:51:38;19.02;;;16.65;;
55455;SDS011;63021;52.836;6.376;2023-06-22T02:54:07;18.13;;;15.85;;
55455;SDS011;63021;52.836;6.376;2023-06-22T02:56:33;19.05;;;16.80;;
55455;SDS011;63021;52.836;6.376;2023-06-22T02:58:58;17.13;;;15.32;;
55455;SDS011;63021;52.836;6.376;2023-06-22T03:01:27;16.40;;;13.30;;
55455;SDS011;63021;52.836;6.376;2023-06-22T03:03:53;15.80;;;14.20;;
55455;SDS011;63021;52.836;6.376;2023-06-22T03:06:20;17.20;;;14.38;;
55455;SDS011;63021;52.836;6.376;2023-06-22T03:08:49;15.57;;;13.65;;
55455;SDS011;63021;52.836;6.376;2023-06-22T03:11:15;15.38;;;13.77;;
55455;SDS011;63021;52.836;6.376;2023-06-22T03:13:40;13.50;;;12.10;;
55455;SDS011;63021;52.836;6.376;2023-06-22T03:16:06;15.25;;;13.63;;
55455;SDS011;63021;52.836;6.376;2023-06-22T03:18:32;14.75;;;13.23;;
55455;SDS011;63021;52.836;6.376;2023-06-22T03:20:57;15.98;;;14.38;;
55455;SDS011;63021;52.836;6.376;2023-06-22T03:23:22;16.05;;;13.93;;
55455;SDS011;63021;52.836;6.376;2023-06-22T03:25:48;14.95;;;13.40;;
55455;SDS011;63021;52.836;6.376;2023-06-22T03:28:13;14.07;;;12.57;;
55455;SDS011;63021;52.836;6.376;2023-06-22T03:30:38;14.10;;;12.25;;
55455;SDS011;63021;52.836;6.376;2023-06-22T03:33:04;13.55;;;12.20;;
55455;SDS011;63021;52.836;6.376;2023-06-22T03:35:29;14.68;;;13.38;;
55455;SDS011;63021;52.836;6.376;2023-06-22T03:37:55;13.45;;;12.15;;
55455;SDS011;63021;52.836;6.376;2023-06-22T03:40:20;14.40;;;13.00;;
55455;SDS011;63021;52.836;6.376;2023-06-22T03:42:46;13.45;;;12.05;;
55455;SDS011;63021;52.836;6.376;2023-06-22T03:45:11;13.77;;;12.35;;
55455;SDS011;63021;52.836;6.376;2023-06-22T03:47:37;14.45;;;12.98;;
55455;SDS011;63021;52.836;6.376;2023-06-22T03:50:02;13.57;;;12.15;;
55455;SDS011;63021;52.836;6.376;2023-06-22T03:52:29;12.55;;;11.30;;
55455;SDS011;63021;52.836;6.376;2023-06-22T03:54:55;12.48;;;11.25;;
55455;SDS011;63021;52.836;6.376;2023-06-22T03:57:20;11.65;;;10.65;;
55455;SDS011;63021;52.836;6.376;2023-06-22T03:59:45;13.18;;;11.93;;
55455;SDS011;63021;52.836;6.376;2023-06-22T04:02:14;13.20;;;11.90;;
55455;SDS011;63021;52.836;6.376;2023-06-22T04:04:39;15.20;;;13.63;;
55455;SDS011;63021;52.836;6.376;2023-06-22T04:07:05;17.85;;;16.05;;
55455;SDS011;63021;52.836;6.376;2023-06-22T04:09:30;16.20;;;14.50;;
55455;SDS011;63021;52.836;6.376;2023-06-22T04:11:56;15.93;;;14.32;;
55455;SDS011;63021;52.836;6.376;2023-06-22T04:14:21;15.80;;;14.20;;
55455;SDS011;63021;52.836;6.376;2023-06-22T04:16:47;15.38;;;13.88;;
55455;SDS011;63021;52.836;6.376;2023-06-22T04:19:12;15.75;;;14.15;;
55455;SDS011;63021;52.836;6.376;2023-06-22T04:21:42;18.98;;;16.98;;
55455;SDS011;63021;52.836;6.376;2023-06-22T04:24:09;24.90;;;21.08;;
55455;SDS011;63021;52.836;6.376;2023-06-22T04:26:35;26.90;;;22.70;;
55455;SDS011;63021;52.836;6.376;2023-06-22T04:29:02;27.60;;;22.35;;
55455;SDS011;63021;52.836;6.376;2023-06-22T04:31:31;25.77;;;21.67;;
55455;SDS011;63021;52.836;6.376;2023-06-22T04:34:03;26.13;;;21.27;;
55455;SDS011;63021;52.836;6.376;2023-06-22T04:36:33;26.63;;;20.65;;
55455;SDS011;63021;52.836;6.376;2023-06-22T04:39:03;26.20;;;22.33;;
55455;SDS011;63021;52.836;6.376;2023-06-22T04:41:34;23.27;;;20.70;;
55455;SDS011;63021;52.836;6.376;2023-06-22T04:44:06;21.52;;;19.23;;
55455;SDS011;63021;52.836;6.376;2023-06-22T04:46:39;22.67;;;20.42;;
55455;SDS011;63021;52.836;6.376;2023-06-22T04:49:08;21.13;;;19.00;;
55455;SDS011;63021;52.836;6.376;2023-06-22T04:51:40;18.63;;;16.80;;
55455;SDS011;63021;52.836;6.376;2023-06-22T04:54:06;23.10;;;20.00;;
55455;SDS011;63021;52.836;6.376;2023-06-22T04:56:33;21.63;;;19.15;;
55455;SDS011;63021;52.836;6.376;2023-06-22T04:58:59;27.42;;;23.13;;
55455;SDS011;63021;52.836;6.376;2023-06-22T05:01:25;26.85;;;22.58;;
55455;SDS011;63021;52.836;6.376;2023-06-22T05:03:50;23.30;;;20.90;;
55455;SDS011;63021;52.836;6.376;2023-06-22T05:06:20;29.27;;;24.52;;
55455;SDS011;63021;52.836;6.376;2023-06-22T05:08:46;29.85;;;24.10;;
55455;SDS011;63021;52.836;6.376;2023-06-22T05:11:12;30.23;;;25.15;;
55455;SDS011;63021;52.836;6.376;2023-06-22T05:13:37;31.58;;;26.45;;
55455;SDS011;63021;52.836;6.376;2023-06-22T05:16:03;31.52;;;25.70;;
55455;SDS011;63021;52.836;6.376;2023-06-22T05:18:29;30.05;;;26.35;;
55455;SDS011;63021;52.836;6.376;2023-06-22T05:20:55;32.67;;;26.80;;
55455;SDS011;63021;52.836;6.376;2023-06-22T05:23:20;29.73;;;26.10;;
55455;SDS011;63021;52.836;6.376;2023-06-22T05:25:45;28.23;;;24.38;;
55455;SDS011;63021;52.836;6.376;2023-06-22T05:28:11;36.08;;;28.08;;
55455;SDS011;63021;52.836;6.376;2023-06-22T05:30:37;35.47;;;27.67;;
55455;SDS011;63021;52.836;6.376;2023-06-22T05:33:03;33.90;;;26.38;;
55455;SDS011;63021;52.836;6.376;2023-06-22T05:35:29;38.85;;;30.00;;
55455;SDS011;63021;52.836;6.376;2023-06-22T05:37:54;40.50;;;31.55;;
55455;SDS011;63021;52.836;6.376;2023-06-22T05:40:20;38.85;;;30.45;;
55455;SDS011;63021;52.836;6.376;2023-06-22T05:42:46;39.78;;;31.77;;
55455;SDS011;63021;52.836;6.376;2023-06-22T05:45:12;40.85;;;30.88;;
55455;SDS011;63021;52.836;6.376;2023-06-22T05:47:38;39.33;;;29.17;;
55455;SDS011;63021;52.836;6.376;2023-06-22T05:50:04;37.75;;;30.45;;
55455;SDS011;63021;52.836;6.376;2023-06-22T05:52:33;38.63;;;31.58;;
55455;SDS011;63021;52.836;6.376;2023-06-22T05:54:59;40.20;;;32.15;;
55455;SDS011;63021;52.836;6.376;2023-06-22T05:57:25;40.70;;;31.15;;
55455;SDS011;63021;52.836;6.376;2023-06-22T05:59:50;35.63;;;28.83;;
55455;SDS011;63021;52.836;6.376;2023-06-22T06:02:16;35.85;;;29.25;;
55455;SDS011;63021;52.836;6.376;2023-06-22T06:04:42;39.33;;;30.45;;
55455;SDS011;63021;52.836;6.376;2023-06-22T06:07:07;36.88;;;30.17;;
55455;SDS011;63021;52.836;6.376;2023-06-22T06:09:32;36.22;;;28.83;;
55455;SDS011;63021;52.836;6.376;2023-06-22T06:11:58;37.63;;;29.38;;
55455;SDS011;63021;52.836;6.376;2023-06-22T06:14:23;36.70;;;28.98;;
55455;SDS011;63021;52.836;6.376;2023-06-22T06:16:49;34.97;;;27.67;;
55455;SDS011;63021;52.836;6.376;2023-06-22T06:19:14;38.03;;;26.95;;
55455;SDS011;63021;52.836;6.376;2023-06-22T06:21:40;34.63;;;26.75;;
55455;SDS011;63021;52.836;6.376;2023-06-22T06:24:05;33.28;;;26.02;;
55455;SDS011;63021;52.836;6.376;2023-06-22T06:26:31;31.95;;;24.90;;
55455;SDS011;63021;52.836;6.376;2023-06-22T06:28:59;33.92;;;25.88;;
55455;SDS011;63021;52.836;6.376;2023-06-22T06:31:25;30.30;;;24.67;;
55455;SDS011;63021;52.836;6.376;2023-06-22T06:33:53;30.45;;;22.95;;
55455;SDS011;63021;52.836;6.376;2023-06-22T06:36:19;25.92;;;21.38;;
55455;SDS011;63021;52.836;6.376;2023-06-22T06:38:45;25.73;;;20.90;;
55455;SDS011;63021;52.836;6.376;2023-06-22T06:41:12;22.85;;;18.65;;
55455;SDS011;63021;52.836;6.376;2023-06-22T06:43:41;24.23;;;17.42;;
55455;SDS011;63021;52.836;6.376;2023-06-22T06:46:10;22.65;;;17.35;;
55455;SDS011;63021;52.836;6.376;2023-06-22T06:48:35;21.35;;;17.33;;
55455;SDS011;63021;52.836;6.376;2023-06-22T06:51:01;17.58;;;15.15;;
55455;SDS011;63021;52.836;6.376;2023-06-22T06:53:27;17.77;;;15.35;;
55455;SDS011;63021;52.836;6.376;2023-06-22T06:55:53;28.60;;;16.73;;
55455;SDS011;63021;52.836;6.376;2023-06-22T06:58:19;22.15;;;16.13;;
55455;SDS011;63021;52.836;6.376;2023-06-22T07:00:44;16.67;;;14.82;;
55455;SDS011;63021;52.836;6.376;2023-06-22T07:03:10;20.70;;;15.65;;
55455;SDS011;63021;52.836;6.376;2023-06-22T07:05:35;19.58;;;15.65;;
55455;SDS011;63021;52.836;6.376;2023-06-22T07:08:01;18.55;;;14.95;;
55455;SDS011;63021;52.836;6.376;2023-06-22T07:10:28;16.75;;;13.27;;
55455;SDS011;63021;52.836;6.376;2023-06-22T07:12:54;14.77;;;13.27;;
55455;SDS011;63021;52.836;6.376;2023-06-22T07:15:19;21.27;;;14.00;;
55455;SDS011;63021;52.836;6.376;2023-06-22T07:17:44;13.85;;;12.23;;
55455;SDS011;63021;52.836;6.376;2023-06-22T07:20:10;17.45;;;12.60;;
55455;SDS011;63021;52.836;6.376;2023-06-22T07:22:39;16.25;;;12.52;;
55455;SDS011;63021;52.836;6.376;2023-06-22T07:25:05;18.15;;;13.35;;
55455;SDS011;63021;52.836;6.376;2023-06-22T07:27:43;17.83;;;12.10;;
55455;SDS011;63021;52.836;6.376;2023-06-22T07:30:22;14.00;;;11.70;;
55455;SDS011;63021;52.836;6.376;2023-06-22T07:32:48;15.48;;;11.80;;
55455;SDS011;63021;52.836;6.376;2023-06-22T07:35:13;13.75;;;11.65;;
55455;SDS011;63021;52.836;6.376;2023-06-22T07:37:41;13.73;;;11.18;;
55455;SDS011;63021;52.836;6.376;2023-06-22T07:40:07;14.43;;;12.18;;
55455;SDS011;63021;52.836;6.376;2023-06-22T07:42:33;12.07;;;10.25;;
55455;SDS011;63021;52.836;6.376;2023-06-22T07:44:59;14.82;;;11.48;;
55455;SDS011;63021;52.836;6.376;2023-06-22T07:47:24;14.85;;;11.10;;
55455;SDS011;63021;52.836;6.376;2023-06-22T07:49:53;14.05;;;9.90;;
55455;SDS011;63021;52.836;6.376;2023-06-22T07:52:20;13.40;;;10.20;;
55455;SDS011;63021;52.836;6.376;2023-06-22T07:54:46;12.75;;;9.57;;
55455;SDS011;63021;52.836;6.376;2023-06-22T07:57:12;13.75;;;10.80;;
55455;SDS011;63021;52.836;6.376;2023-06-22T07:59:37;11.80;;;10.57;;
55455;SDS011;63021;52.836;6.376;2023-06-22T08:02:03;14.32;;;10.10;;
55455;SDS011;63021;52.836;6.376;2023-06-22T08:04:29;11.25;;;9.85;;
55455;SDS011;63021;52.836;6.376;2023-06-22T08:06:56;16.63;;;12.00;;
55455;SDS011;63021;52.836;6.376;2023-06-22T08:09:22;16.70;;;10.98;;
55455;SDS011;63021;52.836;6.376;2023-06-22T08:11:47;14.05;;;10.20;;
55455;SDS011;63021;52.836;6.376;2023-06-22T08:14:14;13.73;;;10.68;;
55455;SDS011;63021;52.836;6.376;2023-06-22T08:16:40;12.70;;;10.15;;
55455;SDS011;63021;52.836;6.376;2023-06-22T08:19:06;15.85;;;12.02;;
55455;SDS011;63021;52.836;6.376;2023-06-22T08:21:32;12.07;;;10.50;;
55455;SDS011;63021;52.836;6.376;2023-06-22T08:23:57;15.13;;;10.75;;
55455;SDS011;63021;52.836;6.376;2023-06-22T08:26:22;15.30;;;12.60;;
55455;SDS011;63021;52.836;6.376;2023-06-22T08:28:48;14.20;;;11.10;;
55455;SDS011;63021;52.836;6.376;2023-06-22T08:31:13;15.48;;;10.30;;
55455;SDS011;63021;52.836;6.376;2023-06-22T08:33:39;12.50;;;11.00;;
55455;SDS011;63021;52.836;6.376;2023-06-22T08:36:05;11.60;;;9.65;;
55455;SDS011;63021;52.836;6.376;2023-06-22T08:38:31;12.93;;;9.93;;
55455;SDS011;63021;52.836;6.376;2023-06-22T08:40:57;12.52;;;9.93;;
55455;SDS011;63021;52.836;6.376;2023-06-22T08:43:22;9.68;;;8.68;;
55455;SDS011;63021;52.836;6.376;2023-06-22T08:45:48;14.85;;;9.77;;
55455;SDS011;63021;52.836;6.376;2023-06-22T08:48:13;9.75;;;8.75;;
55455;SDS011;63021;52.836;6.376;2023-06-22T08:50:39;11.77;;;9.13;;
55455;SDS011;63021;52.836;6.376;2023-06-22T08:53:05;9.57;;;8.45;;
55455;SDS011;63021;52.836;6.376;2023-06-22T08:55:31;13.65;;;8.15;;
55455;SDS011;63021;52.836;6.376;2023-06-22T08:57:56;12.43;;;8.35;;
55455;SDS011;63021;52.836;6.376;2023-06-22T09:00:22;13.20;;;8.77;;
55455;SDS011;63021;52.836;6.376;2023-06-22T09:02:47;14.98;;;8.15;;
55455;SDS011;63021;52.836;6.376;2023-06-22T09:05:13;11.10;;;7.55;;
55455;SDS011;63021;52.836;6.376;2023-06-22T09:07:39;10.32;;;8.55;;
55455;SDS011;63021;52.836;6.376;2023-06-22T09:10:05;8.23;;;7.00;;
55455;SDS011;63021;52.836;6.376;2023-06-22T09:12:31;10.68;;;8.85;;
55455;SDS011;63021;52.836;6.376;2023-06-22T09:14:58;9.85;;;8.55;;
55455;SDS011;63021;52.836;6.376;2023-06-22T09:17:28;9.02;;;7.60;;
55455;SDS011;63021;52.836;6.376;2023-06-22T09:19:53;9.00;;;7.65;;
55455;SDS011;63021;52.836;6.376;2023-06-22T09:22:19;9.73;;;7.70;;
55455;SDS011;63021;52.836;6.376;2023-06-22T09:24:44;10.18;;;7.20;;
55455;SDS011;63021;52.836;6.376;2023-06-22T09:27:09;8.95;;;6.65;;
55455;SDS011;63021;52.836;6.376;2023-06-22T09:29:35;9.15;;;7.53;;
55455;SDS011;63021;52.836;6.376;2023-06-22T09:32:00;8.85;;;7.15;;
55455;SDS011;63021;52.836;6.376;2023-06-22T09:34:26;10.45;;;6.97;;
55455;SDS011;63021;52.836;6.376;2023-06-22T09:36:52;10.65;;;7.90;;
55455;SDS011;63021;52.836;6.376;2023-06-22T09:39:18;8.52;;;7.30;;
55455;SDS011;63021;52.836;6.376;2023-06-22T09:41:43;8.77;;;6.97;;
55455;SDS011;63021;52.836;6.376;2023-06-22T09:44:09;9.40;;;6.60;;
55455;SDS011;63021;52.836;6.376;2023-06-22T09:46:34;7.68;;;6.82;;
55455;SDS011;63021;52.836;6.376;2023-06-22T09:48:59;9.23;;;7.45;;
55455;SDS011;63021;52.836;6.376;2023-06-22T09:51:25;8.15;;;6.38;;
55455;SDS011;63021;52.836;6.376;2023-06-22T09:53:51;9.35;;;6.88;;
55455;SDS011;63021;52.836;6.376;2023-06-22T09:56:17;8.27;;;7.40;;
55455;SDS011;63021;52.836;6.376;2023-06-22T09:58:43;8.60;;;6.82;;
55455;SDS011;63021;52.836;6.376;2023-06-22T10:01:09;9.35;;;6.68;;
55455;SDS011;63021;52.836;6.376;2023-06-22T10:03:40;7.13;;;6.35;;
55455;SDS011;63021;52.836;6.376;2023-06-22T10:06:06;12.38;;;6.75;;
55455;SDS011;63021;52.836;6.376;2023-06-22T10:08:33;7.35;;;5.55;;
55455;SDS011;63021;52.836;6.376;2023-06-22T10:10:58;6.63;;;5.20;;
55455;SDS011;63021;52.836;6.376;2023-06-22T10:13:24;6.72;;;5.30;;
55455;SDS011;63021;52.836;6.376;2023-06-22T10:15:49;8.73;;;7.28;;
55455;SDS011;63021;52.836;6.376;2023-06-22T10:18:17;9.80;;;6.75;;
55455;SDS011;63021;52.836;6.376;2023-06-22T10:20:43;8.57;;;5.10;;
55455;SDS011;63021;52.836;6.376;2023-06-22T10:23:08;6.82;;;6.10;;
55455;SDS011;63021;52.836;6.376;2023-06-22T10:25:34;8.63;;;7.43;;
55455;SDS011;63021;52.836;6.376;2023-06-22T10:27:59;7.47;;;6.13;;
55455;SDS011;63021;52.836;6.376;2023-06-22T10:30:25;9.93;;;6.88;;
55455;SDS011;63021;52.836;6.376;2023-06-22T10:32:50;9.95;;;6.38;;
55455;SDS011;63021;52.836;6.376;2023-06-22T10:35:16;22.73;;;7.90;;
55455;SDS011;63021;52.836;6.376;2023-06-22T10:37:42;15.15;;;6.47;;
55455;SDS011;63021;52.836;6.376;2023-06-22T10:40:08;6.85;;;6.15;;
55455;SDS011;63021;52.836;6.376;2023-06-22T10:42:34;6.78;;;5.53;;
55455;SDS011;63021;52.836;6.376;2023-06-22T10:45:00;6.97;;;5.30;;
55455;SDS011;63021;52.836;6.376;2023-06-22T10:47:25;8.35;;;5.93;;
55455;SDS011;63021;52.836;6.376;2023-06-22T10:49:50;6.78;;;5.28;;
55455;SDS011;63021;52.836;6.376;2023-06-22T10:52:16;7.00;;;5.22;;
55455;SDS011;63021;52.836;6.376;2023-06-22T10:54:41;6.75;;;5.20;;
55455;SDS011;63021;52.836;6.376;2023-06-22T10:57:06;6.35;;;4.75;;
55455;SDS011;63021;52.836;6.376;2023-06-22T10:59:32;7.35;;;4.78;;
55455;SDS011;63021;52.836;6.376;2023-06-22T11:01:58;7.47;;;5.35;;
55455;SDS011;63021;52.836;6.376;2023-06-22T11:04:23;7.07;;;5.18;;
55455;SDS011;63021;52.836;6.376;2023-06-22T11:06:49;6.68;;;5.75;;
55455;SDS011;63021;52.836;6.376;2023-06-22T11:09:15;7.47;;;5.68;;
55455;SDS011;63021;52.836;6.376;2023-06-22T11:11:49;5.85;;;5.05;;
55455;SDS011;63021;52.836;6.376;2023-06-22T11:14:16;8.20;;;5.75;;
55455;SDS011;63021;52.836;6.376;2023-06-22T11:16:41;7.30;;;4.70;;
55455;SDS011;63021;52.836;6.376;2023-06-22T11:19:07;6.30;;;4.75;;
55455;SDS011;63021;52.836;6.376;2023-06-22T11:21:33;5.20;;;4.70;;
55455;SDS011;63021;52.836;6.376;2023-06-22T11:23:58;6.63;;;5.50;;
55455;SDS011;63021;52.836;6.376;2023-06-22T11:26:24;6.13;;;4.50;;
55455;SDS011;63021;52.836;6.376;2023-06-22T11:28:52;6.00;;;5.07;;
55455;SDS011;63021;52.836;6.376;2023-06-22T11:31:18;7.80;;;4.85;;
55455;SDS011;63021;52.836;6.376;2023-06-22T11:33:43;7.53;;;6.15;;
55455;SDS011;63021;52.836;6.376;2023-06-22T11:36:11;5.53;;;4.55;;
55455;SDS011;63021;52.836;6.376;2023-06-22T11:38:37;7.75;;;5.72;;
55455;SDS011;63021;52.836;6.376;2023-06-22T11:41:04;9.70;;;4.05;;
55455;SDS011;63021;52.836;6.376;2023-06-22T11:43:30;7.60;;;4.88;;
55455;SDS011;63021;52.836;6.376;2023-06-22T11:45:56;4.32;;;3.80;;
55455;SDS011;63021;52.836;6.376;2023-06-22T11:48:22;7.88;;;4.47;;
55455;SDS011;63021;52.836;6.376;2023-06-22T11:50:51;5.57;;;4.85;;
55455;SDS011;63021;52.836;6.376;2023-06-22T11:53:16;6.30;;;4.53;;
55455;SDS011;63021;52.836;6.376;2023-06-22T11:55:42;6.10;;;5.13;;
55455;SDS011;63021;52.836;6.376;2023-06-22T11:58:09;10.75;;;5.30;;
55455;SDS011;63021;52.836;6.376;2023-06-22T12:00:35;8.57;;;5.40;;
55455;SDS011;63021;52.836;6.376;2023-06-22T12:03:00;8.23;;;5.35;;
55455;SDS011;63021;52.836;6.376;2023-06-22T12:05:25;6.07;;;5.35;;
55455;SDS011;63021;52.836;6.376;2023-06-22T12:07:53;7.55;;;4.95;;
55455;SDS011;63021;52.836;6.376;2023-06-22T12:10:19;5.43;;;4.90;;
55455;SDS011;63021;52.836;6.376;2023-06-22T12:12:45;5.07;;;4.57;;
55455;SDS011;63021;52.836;6.376;2023-06-22T12:15:10;7.25;;;4.88;;
55455;SDS011;63021;52.836;6.376;2023-06-22T12:17:36;6.85;;;4.78;;
55455;SDS011;63021;52.836;6.376;2023-06-22T12:20:01;6.38;;;4.90;;
55455;SDS011;63021;52.836;6.376;2023-06-22T12:22:30;5.75;;;4.38;;
55455;SDS011;63021;52.836;6.376;2023-06-22T12:24:56;5.00;;;4.50;;
55455;SDS011;63021;52.836;6.376;2023-06-22T12:27:22;7.57;;;5.00;;
55455;SDS011;63021;52.836;6.376;2023-06-22T12:29:47;6.20;;;4.70;;
55455;SDS011;63021;52.836;6.376;2023-06-22T12:32:13;7.53;;;4.68;;
55455;SDS011;63021;52.836;6.376;2023-06-22T12:34:39;5.32;;;4.72;;
55455;SDS011;63021;52.836;6.376;2023-06-22T12:37:07;4.70;;;4.10;;
55455;SDS011;63021;52.836;6.376;2023-06-22T12:39:32;6.90;;;4.60;;
55455;SDS011;63021;52.836;6.376;2023-06-22T12:41:57;7.38;;;5.45;;
55455;SDS011;63021;52.836;6.376;2023-06-22T12:44:23;5.68;;;4.55;;
55455;SDS011;63021;52.836;6.376;2023-06-22T12:46:49;6.40;;;4.82;;
55455;SDS011;63021;52.836;6.376;2023-06-22T12:49:14;5.60;;;4.90;;
55455;SDS011;63021;52.836;6.376;2023-06-22T12:51:40;5.63;;;5.00;;
55455;SDS011;63021;52.836;6.376;2023-06-22T12:54:07;6.50;;;5.10;;
55455;SDS011;63021;52.836;6.376;2023-06-22T12:56:33;9.43;;;5.32;;
55455;SDS011;63021;52.836;6.376;2023-06-22T12:58:58;8.07;;;5.78;;
55455;SDS011;63021;52.836;6.376;2023-06-22T13:01:26;8.07;;;4.45;;
55455;SDS011;63021;52.836;6.376;2023-06-22T13:04:00;6.53;;;5.03;;
55455;SDS011;63021;52.836;6.376;2023-06-22T13:06:25;6.65;;;4.85;;
55455;SDS011;63021;52.836;6.376;2023-06-22T13:08:51;5.32;;;4.82;;
55455;SDS011;63021;52.836;6.376;2023-06-22T13:11:16;7.97;;;6.00;;
55455;SDS011;63021;52.836;6.376;2023-06-22T13:13:43;7.70;;;4.93;;
55455;SDS011;63021;52.836;6.376;2023-06-22T13:16:09;5.20;;;4.70;;
55455;SDS011;63021;52.836;6.376;2023-06-22T13:18:35;10.48;;;5.85;;
55455;SDS011;63021;52.836;6.376;2023-06-22T13:21:01;7.18;;;5.13;;
55455;SDS011;63021;52.836;6.376;2023-06-22T13:23:27;6.30;;;5.10;;
55455;SDS011;63021;52.836;6.376;2023-06-22T13:25:52;8.00;;;5.50;;
55455;SDS011;63021;52.836;6.376;2023-06-22T13:28:18;6.60;;;4.70;;
55455;SDS011;63021;52.836;6.376;2023-06-22T13:30:43;7.22;;;5.22;;
55455;SDS011;63021;52.836;6.376;2023-06-22T13:33:13;6.05;;;4.95;;
55455;SDS011;63021;52.836;6.376;2023-06-22T13:35:39;8.02;;;4.80;;
55455;SDS011;63021;52.836;6.376;2023-06-22T13:38:07;5.60;;;5.10;;
55455;SDS011;63021;52.836;6.376;2023-06-22T13:40:33;11.63;;;5.75;;
55455;SDS011;63021;52.836;6.376;2023-06-22T13:42:58;7.05;;;5.88;;
55455;SDS011;63021;52.836;6.376;2023-06-22T13:45:25;6.90;;;5.90;;
55455;SDS011;63021;52.836;6.376;2023-06-22T13:47:50;8.38;;;5.38;;
55455;SDS011;63021;52.836;6.376;2023-06-22T13:50:15;6.57;;;5.63;;
55455;SDS011;63021;52.836;6.376;2023-06-22T13:52:41;7.75;;;6.10;;
55455;SDS011;63021;52.836;6.376;2023-06-22T13:55:06;9.35;;;6.30;;
55455;SDS011;63021;52.836;6.376;2023-06-22T13:57:32;7.15;;;6.13;;
55455;SDS011;63021;52.836;6.376;2023-06-22T13:59:59;10.25;;;6.43;;
55455;SDS011;63021;52.836;6.376;2023-06-22T14:02:25;8.88;;;5.95;;
55455;SDS011;63021;52.836;6.376;2023-06-22T14:04:51;10.48;;;6.20;;
55455;SDS011;63021;52.836;6.376;2023-06-22T14:07:16;9.48;;;6.88;;
55455;SDS011;63021;52.836;6.376;2023-06-22T14:09:44;12.00;;;7.93;;
55455;SDS011;63021;52.836;6.376;2023-06-22T14:12:10;8.02;;;6.50;;
55455;SDS011;63021;52.836;6.376;2023-06-22T14:14:35;10.50;;;7.55;;
55455;SDS011;63021;52.836;6.376;2023-06-22T14:17:01;11.70;;;7.53;;
55455;SDS011;63021;52.836;6.376;2023-06-22T14:19:26;9.65;;;6.57;;
55455;SDS011;63021;52.836;6.376;2023-06-22T14:21:52;12.77;;;8.18;;
55455;SDS011;63021;52.836;6.376;2023-06-22T14:24:17;11.13;;;7.35;;
55455;SDS011;63021;52.836;6.376;2023-06-22T14:26:43;9.45;;;7.60;;
55455;SDS011;63021;52.836;6.376;2023-06-22T14:29:08;17.38;;;6.97;;
55455;SDS011;63021;52.836;6.376;2023-06-22T14:31:33;9.52;;;7.90;;
55455;SDS011;63021;52.836;6.376;2023-06-22T14:33:59;10.85;;;8.02;;